sensor_id;sensor_type;location;lat;lon;timestamp;P1;durP1;ratioP1;P2;durP2;ratioP2
24443;SDS011;13346;50.984;5.822;2023-06-01T00:00:15;4.47;;;3.40;;
24443;SDS011;13346;50.984;5.822;2023-06-01T00:02:43;7.33;;;4.83;;
24443;SDS011;13346;50.984;5.822;2023-06-01T00:05:11;4.80;;;3.57;;
24443;SDS011;13346;50.984;5.822;2023-06-01T00:07:38;5.77;;;4.43;;
24443;SDS011;13346;50.984;5.822;2023-06-01T00:10:06;4.07;;;3.77;;
24443;SDS011;13346;50.984;5.822;2023-06-01T00:12:33;8.23;;;4.20;;
24443;SDS011;13346;50.984;5.822;2023-06-01T00:15:00;5.73;;;4.53;;
24443;SDS011;13346;50.984;5.822;2023-06-01T00:17:28;11.87;;;5.20;;
24443;SDS011;13346;50.984;5.822;2023-06-01T00:19:55;3.67;;;3.37;;
24443;SDS011;13346;50.984;5.822;2023-06-01T00:22:27;5.70;;;4.07;;
24443;SDS011;13346;50.984;5.822;2023-06-01T00:24:59;4.87;;;4.03;;
24443;SDS011;13346;50.984;5.822;2023-06-01T00:27:26;4.30;;;3.93;;
24443;SDS011;13346;50.984;5.822;2023-06-01T00:29:53;6.37;;;4.23;;
24443;SDS011;13346;50.984;5.822;2023-06-01T00:32:20;7.30;;;4.37;;
24443;SDS011;13346;50.984;5.822;2023-06-01T00:34:47;5.07;;;4.57;;
24443;SDS011;13346;50.984;5.822;2023-06-01T00:37:15;4.97;;;4.20;;
24443;SDS011;13346;50.984;5.822;2023-06-01T00:39:43;5.30;;;4.10;;
24443;SDS011;13346;50.984;5.822;2023-06-01T00:42:10;10.27;;;4.30;;
24443;SDS011;13346;50.984;5.822;2023-06-01T00:44:37;9.40;;;4.73;;
24443;SDS011;13346;50.984;5.822;2023-06-01T00:47:05;7.47;;;4.93;;
24443;SDS011;13346;50.984;5.822;2023-06-01T00:49:32;5.00;;;4.00;;
24443;SDS011;13346;50.984;5.822;2023-06-01T00:52:00;5.67;;;5.27;;
24443;SDS011;13346;50.984;5.822;2023-06-01T00:54:27;6.37;;;4.73;;
24443;SDS011;13346;50.984;5.822;2023-06-01T00:56:56;11.83;;;4.30;;
24443;SDS011;13346;50.984;5.822;2023-06-01T00:59:24;7.43;;;5.07;;
24443;SDS011;13346;50.984;5.822;2023-06-01T01:01:51;9.27;;;4.77;;
24443;SDS011;13346;50.984;5.822;2023-06-01T01:04:18;6.37;;;4.63;;
24443;SDS011;13346;50.984;5.822;2023-06-01T01:06:53;6.20;;;4.57;;
24443;SDS011;13346;50.984;5.822;2023-06-01T01:09:27;7.00;;;5.10;;
24443;SDS011;13346;50.984;5.822;2023-06-01T01:12:09;6.43;;;5.67;;
24443;SDS011;13346;50.984;5.822;2023-06-01T01:14:43;4.73;;;4.43;;
24443;SDS011;13346;50.984;5.822;2023-06-01T01:17:17;6.47;;;5.40;;
24443;SDS011;13346;50.984;5.822;2023-06-01T01:19:53;8.17;;;5.67;;
24443;SDS011;13346;50.984;5.822;2023-06-01T01:22:29;7.77;;;5.47;;
24443;SDS011;13346;50.984;5.822;2023-06-01T01:25:31;7.63;;;6.00;;
24443;SDS011;13346;50.984;5.822;2023-06-01T01:28:37;6.70;;;6.10;;
24443;SDS011;13346;50.984;5.822;2023-06-01T01:31:09;7.23;;;6.27;;
24443;SDS011;13346;50.984;5.822;2023-06-01T01:33:38;6.77;;;6.10;;
24443;SDS011;13346;50.984;5.822;2023-06-01T01:36:07;12.13;;;6.87;;
24443;SDS011;13346;50.984;5.822;2023-06-01T01:38:36;7.67;;;6.30;;
24443;SDS011;13346;50.984;5.822;2023-06-01T01:41:03;12.60;;;7.27;;
24443;SDS011;13346;50.984;5.822;2023-06-01T01:43:31;7.20;;;5.97;;
24443;SDS011;13346;50.984;5.822;2023-06-01T01:46:03;9.60;;;6.27;;
24443;SDS011;13346;50.984;5.822;2023-06-01T01:48:36;10.60;;;7.20;;
24443;SDS011;13346;50.984;5.822;2023-06-01T01:51:07;8.00;;;6.90;;
24443;SDS011;13346;50.984;5.822;2023-06-01T01:53:52;12.93;;;7.40;;
24443;SDS011;13346;50.984;5.822;2023-06-01T01:56:23;8.03;;;6.93;;
24443;SDS011;13346;50.984;5.822;2023-06-01T01:58:52;8.73;;;6.97;;
24443;SDS011;13346;50.984;5.822;2023-06-01T02:01:22;10.07;;;6.73;;
24443;SDS011;13346;50.984;5.822;2023-06-01T02:03:57;14.07;;;6.87;;
24443;SDS011;13346;50.984;5.822;2023-06-01T02:06:25;9.93;;;7.40;;
24443;SDS011;13346;50.984;5.822;2023-06-01T02:08:53;10.03;;;7.30;;
24443;SDS011;13346;50.984;5.822;2023-06-01T02:11:20;7.83;;;6.83;;
24443;SDS011;13346;50.984;5.822;2023-06-01T02:13:47;9.93;;;7.67;;
24443;SDS011;13346;50.984;5.822;2023-06-01T02:16:14;8.03;;;6.93;;
24443;SDS011;13346;50.984;5.822;2023-06-01T02:18:44;11.67;;;7.57;;
24443;SDS011;13346;50.984;5.822;2023-06-01T02:21:12;9.17;;;7.83;;
24443;SDS011;13346;50.984;5.822;2023-06-01T02:23:40;11.00;;;7.63;;
24443;SDS011;13346;50.984;5.822;2023-06-01T02:26:08;10.00;;;7.60;;
24443;SDS011;13346;50.984;5.822;2023-06-01T02:28:36;12.20;;;8.07;;
24443;SDS011;13346;50.984;5.822;2023-06-01T02:31:06;9.93;;;7.17;;
24443;SDS011;13346;50.984;5.822;2023-06-01T02:33:33;10.53;;;7.53;;
24443;SDS011;13346;50.984;5.822;2023-06-01T02:36:02;11.43;;;7.33;;
24443;SDS011;13346;50.984;5.822;2023-06-01T02:38:30;9.13;;;7.20;;
24443;SDS011;13346;50.984;5.822;2023-06-01T02:40:57;9.13;;;7.77;;
24443;SDS011;13346;50.984;5.822;2023-06-01T02:43:24;8.33;;;6.73;;
24443;SDS011;13346;50.984;5.822;2023-06-01T02:45:51;9.97;;;8.07;;
24443;SDS011;13346;50.984;5.822;2023-06-01T02:48:19;9.83;;;8.50;;
24443;SDS011;13346;50.984;5.822;2023-06-01T02:50:46;12.90;;;8.27;;
24443;SDS011;13346;50.984;5.822;2023-06-01T02:53:15;10.03;;;7.33;;
24443;SDS011;13346;50.984;5.822;2023-06-01T02:55:42;9.30;;;8.37;;
24443;SDS011;13346;50.984;5.822;2023-06-01T02:58:10;11.47;;;10.00;;
24443;SDS011;13346;50.984;5.822;2023-06-01T03:00:41;11.20;;;8.47;;
24443;SDS011;13346;50.984;5.822;2023-06-01T03:03:08;17.57;;;8.93;;
24443;SDS011;13346;50.984;5.822;2023-06-01T03:05:36;14.57;;;9.57;;
24443;SDS011;13346;50.984;5.822;2023-06-01T03:08:03;11.43;;;9.77;;
24443;SDS011;13346;50.984;5.822;2023-06-01T03:10:32;11.10;;;8.97;;
24443;SDS011;13346;50.984;5.822;2023-06-01T03:13:00;16.73;;;9.63;;
24443;SDS011;13346;50.984;5.822;2023-06-01T03:15:27;12.37;;;10.10;;
24443;SDS011;13346;50.984;5.822;2023-06-01T03:17:54;15.20;;;10.30;;
24443;SDS011;13346;50.984;5.822;2023-06-01T03:20:21;10.47;;;8.73;;
24443;SDS011;13346;50.984;5.822;2023-06-01T03:22:48;12.17;;;9.77;;
24443;SDS011;13346;50.984;5.822;2023-06-01T03:25:15;17.73;;;10.67;;
24443;SDS011;13346;50.984;5.822;2023-06-01T03:27:44;13.23;;;9.50;;
24443;SDS011;13346;50.984;5.822;2023-06-01T03:30:12;11.37;;;10.23;;
24443;SDS011;13346;50.984;5.822;2023-06-01T03:32:40;15.57;;;10.43;;
24443;SDS011;13346;50.984;5.822;2023-06-01T03:35:08;16.23;;;8.60;;
24443;SDS011;13346;50.984;5.822;2023-06-01T03:37:36;13.33;;;10.17;;
24443;SDS011;13346;50.984;5.822;2023-06-01T03:40:05;12.13;;;9.67;;
24443;SDS011;13346;50.984;5.822;2023-06-01T03:42:35;14.37;;;10.90;;
24443;SDS011;13346;50.984;5.822;2023-06-01T03:45:05;12.30;;;9.47;;
24443;SDS011;13346;50.984;5.822;2023-06-01T03:47:33;14.07;;;10.17;;
24443;SDS011;13346;50.984;5.822;2023-06-01T03:50:00;15.53;;;10.17;;
24443;SDS011;13346;50.984;5.822;2023-06-01T03:52:28;16.30;;;10.57;;
24443;SDS011;13346;50.984;5.822;2023-06-01T03:54:56;12.37;;;10.13;;
24443;SDS011;13346;50.984;5.822;2023-06-01T03:57:24;22.70;;;10.40;;
24443;SDS011;13346;50.984;5.822;2023-06-01T03:59:51;18.87;;;10.60;;
24443;SDS011;13346;50.984;5.822;2023-06-01T04:02:20;15.13;;;11.17;;
24443;SDS011;13346;50.984;5.822;2023-06-01T04:04:48;15.20;;;10.40;;
24443;SDS011;13346;50.984;5.822;2023-06-01T04:07:16;13.90;;;10.20;;
24443;SDS011;13346;50.984;5.822;2023-06-01T04:09:46;18.43;;;10.63;;
24443;SDS011;13346;50.984;5.822;2023-06-01T04:12:14;14.67;;;10.90;;
24443;SDS011;13346;50.984;5.822;2023-06-01T04:14:41;21.83;;;11.93;;
24443;SDS011;13346;50.984;5.822;2023-06-01T04:17:08;16.70;;;12.33;;
24443;SDS011;13346;50.984;5.822;2023-06-01T04:19:38;15.50;;;11.57;;
24443;SDS011;13346;50.984;5.822;2023-06-01T04:22:05;17.50;;;11.90;;
24443;SDS011;13346;50.984;5.822;2023-06-01T04:24:32;19.80;;;13.63;;
24443;SDS011;13346;50.984;5.822;2023-06-01T04:26:59;19.40;;;13.70;;
24443;SDS011;13346;50.984;5.822;2023-06-01T04:29:27;19.27;;;13.13;;
24443;SDS011;13346;50.984;5.822;2023-06-01T04:31:54;19.93;;;14.40;;
24443;SDS011;13346;50.984;5.822;2023-06-01T04:34:22;25.77;;;16.87;;
24443;SDS011;13346;50.984;5.822;2023-06-01T04:36:51;21.63;;;16.17;;
24443;SDS011;13346;50.984;5.822;2023-06-01T04:39:19;25.60;;;17.43;;
24443;SDS011;13346;50.984;5.822;2023-06-01T04:41:46;25.23;;;16.47;;
24443;SDS011;13346;50.984;5.822;2023-06-01T04:44:14;28.50;;;16.20;;
24443;SDS011;13346;50.984;5.822;2023-06-01T04:46:41;20.33;;;14.23;;
24443;SDS011;13346;50.984;5.822;2023-06-01T04:49:11;19.57;;;16.57;;
24443;SDS011;13346;50.984;5.822;2023-06-01T04:51:40;24.27;;;16.87;;
24443;SDS011;13346;50.984;5.822;2023-06-01T04:54:09;24.40;;;17.30;;
24443;SDS011;13346;50.984;5.822;2023-06-01T04:56:36;26.53;;;17.47;;
24443;SDS011;13346;50.984;5.822;2023-06-01T04:59:03;25.07;;;18.20;;
24443;SDS011;13346;50.984;5.822;2023-06-01T05:01:31;18.63;;;13.87;;
24443;SDS011;13346;50.984;5.822;2023-06-01T05:03:58;23.53;;;16.40;;
24443;SDS011;13346;50.984;5.822;2023-06-01T05:06:25;30.07;;;18.53;;
24443;SDS011;13346;50.984;5.822;2023-06-01T05:08:53;17.23;;;11.27;;
24443;SDS011;13346;50.984;5.822;2023-06-01T05:11:22;25.17;;;16.10;;
24443;SDS011;13346;50.984;5.822;2023-06-01T05:13:49;19.57;;;13.00;;
24443;SDS011;13346;50.984;5.822;2023-06-01T05:16:17;24.23;;;16.53;;
24443;SDS011;13346;50.984;5.822;2023-06-01T05:18:45;25.70;;;17.80;;
24443;SDS011;13346;50.984;5.822;2023-06-01T05:21:12;25.57;;;17.43;;
24443;SDS011;13346;50.984;5.822;2023-06-01T05:23:39;28.87;;;18.10;;
24443;SDS011;13346;50.984;5.822;2023-06-01T05:26:06;29.17;;;17.77;;
24443;SDS011;13346;50.984;5.822;2023-06-01T05:28:35;21.27;;;15.57;;
24443;SDS011;13346;50.984;5.822;2023-06-01T05:31:02;23.37;;;16.80;;
24443;SDS011;13346;50.984;5.822;2023-06-01T05:33:29;18.67;;;15.30;;
24443;SDS011;13346;50.984;5.822;2023-06-01T05:35:56;22.47;;;15.80;;
24443;SDS011;13346;50.984;5.822;2023-06-01T05:38:24;25.00;;;16.20;;
24443;SDS011;13346;50.984;5.822;2023-06-01T05:40:51;21.00;;;16.10;;
24443;SDS011;13346;50.984;5.822;2023-06-01T05:43:18;21.20;;;16.73;;
24443;SDS011;13346;50.984;5.822;2023-06-01T05:45:46;19.00;;;15.27;;
24443;SDS011;13346;50.984;5.822;2023-06-01T05:48:14;18.47;;;15.07;;
24443;SDS011;13346;50.984;5.822;2023-06-01T05:50:42;20.80;;;15.90;;
24443;SDS011;13346;50.984;5.822;2023-06-01T05:53:09;18.87;;;14.50;;
24443;SDS011;13346;50.984;5.822;2023-06-01T05:55:36;19.33;;;14.23;;
24443;SDS011;13346;50.984;5.822;2023-06-01T05:58:03;17.43;;;13.80;;
24443;SDS011;13346;50.984;5.822;2023-06-01T06:00:32;18.80;;;13.27;;
24443;SDS011;13346;50.984;5.822;2023-06-01T06:03:01;15.93;;;13.27;;
24443;SDS011;13346;50.984;5.822;2023-06-01T06:05:29;18.87;;;14.87;;
24443;SDS011;13346;50.984;5.822;2023-06-01T06:07:56;20.93;;;14.20;;
24443;SDS011;13346;50.984;5.822;2023-06-01T06:10:23;15.37;;;12.70;;
24443;SDS011;13346;50.984;5.822;2023-06-01T06:12:51;11.67;;;10.40;;
24443;SDS011;13346;50.984;5.822;2023-06-01T06:15:18;15.87;;;11.10;;
24443;SDS011;13346;50.984;5.822;2023-06-01T06:17:45;16.07;;;11.97;;
24443;SDS011;13346;50.984;5.822;2023-06-01T06:20:14;17.73;;;14.23;;
24443;SDS011;13346;50.984;5.822;2023-06-01T06:22:41;18.47;;;13.83;;
24443;SDS011;13346;50.984;5.822;2023-06-01T06:25:09;20.03;;;14.20;;
24443;SDS011;13346;50.984;5.822;2023-06-01T06:27:37;17.37;;;12.13;;
24443;SDS011;13346;50.984;5.822;2023-06-01T06:30:05;17.03;;;13.47;;
24443;SDS011;13346;50.984;5.822;2023-06-01T06:32:33;14.73;;;12.00;;
24443;SDS011;13346;50.984;5.822;2023-06-01T06:35:01;15.03;;;13.37;;
24443;SDS011;13346;50.984;5.822;2023-06-01T06:37:29;15.67;;;13.37;;
24443;SDS011;13346;50.984;5.822;2023-06-01T06:39:57;15.87;;;12.33;;
24443;SDS011;13346;50.984;5.822;2023-06-01T06:42:24;18.80;;;13.83;;
24443;SDS011;13346;50.984;5.822;2023-06-01T06:44:52;20.30;;;13.40;;
24443;SDS011;13346;50.984;5.822;2023-06-01T06:47:22;12.13;;;10.57;;
24443;SDS011;13346;50.984;5.822;2023-06-01T06:49:49;13.27;;;11.37;;
24443;SDS011;13346;50.984;5.822;2023-06-01T06:52:17;13.50;;;11.27;;
24443;SDS011;13346;50.984;5.822;2023-06-01T06:54:45;15.83;;;11.47;;
24443;SDS011;13346;50.984;5.822;2023-06-01T06:57:12;12.67;;;10.30;;
24443;SDS011;13346;50.984;5.822;2023-06-01T06:59:40;11.50;;;10.30;;
24443;SDS011;13346;50.984;5.822;2023-06-01T07:02:07;12.60;;;10.17;;
24443;SDS011;13346;50.984;5.822;2023-06-01T07:04:34;12.47;;;10.37;;
24443;SDS011;13346;50.984;5.822;2023-06-01T07:07:01;11.53;;;10.07;;
24443;SDS011;13346;50.984;5.822;2023-06-01T07:09:29;10.87;;;9.90;;
24443;SDS011;13346;50.984;5.822;2023-06-01T07:11:58;11.30;;;9.20;;
24443;SDS011;13346;50.984;5.822;2023-06-01T07:14:25;9.27;;;8.40;;
24443;SDS011;13346;50.984;5.822;2023-06-01T07:16:52;9.90;;;8.90;;
24443;SDS011;13346;50.984;5.822;2023-06-01T07:19:19;10.10;;;8.50;;
24443;SDS011;13346;50.984;5.822;2023-06-01T07:21:47;10.87;;;9.37;;
24443;SDS011;13346;50.984;5.822;2023-06-01T07:24:17;9.77;;;8.77;;
24443;SDS011;13346;50.984;5.822;2023-06-01T07:26:45;11.37;;;9.10;;
24443;SDS011;13346;50.984;5.822;2023-06-01T07:29:13;11.10;;;9.93;;
24443;SDS011;13346;50.984;5.822;2023-06-01T07:31:41;11.27;;;9.30;;
24443;SDS011;13346;50.984;5.822;2023-06-01T07:34:08;10.73;;;9.73;;
24443;SDS011;13346;50.984;5.822;2023-06-01T07:36:36;9.30;;;8.63;;
24443;SDS011;13346;50.984;5.822;2023-06-01T07:39:03;14.50;;;9.77;;
24443;SDS011;13346;50.984;5.822;2023-06-01T07:41:34;9.23;;;8.30;;
24443;SDS011;13346;50.984;5.822;2023-06-01T07:44:01;9.63;;;8.50;;
24443;SDS011;13346;50.984;5.822;2023-06-01T07:46:30;9.90;;;8.27;;
24443;SDS011;13346;50.984;5.822;2023-06-01T07:48:57;14.05;;;9.45;;
24443;SDS011;13346;50.984;5.822;2023-06-01T07:51:24;8.45;;;7.65;;
24443;SDS011;13346;50.984;5.822;2023-06-01T07:53:52;8.75;;;7.95;;
24443;SDS011;13346;50.984;5.822;2023-06-01T07:56:22;9.90;;;8.48;;
24443;SDS011;13346;50.984;5.822;2023-06-01T07:58:52;11.40;;;7.90;;
24443;SDS011;13346;50.984;5.822;2023-06-01T08:01:19;9.68;;;8.63;;
24443;SDS011;13346;50.984;5.822;2023-06-01T08:03:47;9.52;;;8.52;;
24443;SDS011;13346;50.984;5.822;2023-06-01T08:06:16;10.45;;;8.65;;
24443;SDS011;13346;50.984;5.822;2023-06-01T08:08:43;7.90;;;7.20;;
24443;SDS011;13346;50.984;5.822;2023-06-01T08:11:13;9.55;;;8.60;;
24443;SDS011;13346;50.984;5.822;2023-06-01T08:13:40;12.80;;;8.50;;
24443;SDS011;13346;50.984;5.822;2023-06-01T08:16:11;12.05;;;8.70;;
24443;SDS011;13346;50.984;5.822;2023-06-01T08:18:39;9.20;;;8.45;;
24443;SDS011;13346;50.984;5.822;2023-06-01T08:21:08;9.95;;;7.35;;
24443;SDS011;13346;50.984;5.822;2023-06-01T08:23:35;9.85;;;7.80;;
24443;SDS011;13346;50.984;5.822;2023-06-01T08:26:03;8.80;;;7.93;;
24443;SDS011;13346;50.984;5.822;2023-06-01T08:28:31;8.80;;;7.90;;
24443;SDS011;13346;50.984;5.822;2023-06-01T08:30:58;10.38;;;9.18;;
24443;SDS011;13346;50.984;5.822;2023-06-01T08:33:25;7.38;;;6.72;;
24443;SDS011;13346;50.984;5.822;2023-06-01T08:35:53;8.52;;;7.70;;
24443;SDS011;13346;50.984;5.822;2023-06-01T08:38:21;8.68;;;7.78;;
24443;SDS011;13346;50.984;5.822;2023-06-01T08:40:50;10.07;;;9.25;;
24443;SDS011;13346;50.984;5.822;2023-06-01T08:43:17;8.40;;;7.65;;
24443;SDS011;13346;50.984;5.822;2023-06-01T08:45:46;9.90;;;8.82;;
24443;SDS011;13346;50.984;5.822;2023-06-01T08:48:15;9.98;;;8.25;;
24443;SDS011;13346;50.984;5.822;2023-06-01T08:50:44;10.00;;;9.02;;
24443;SDS011;13346;50.984;5.822;2023-06-01T08:53:14;14.07;;;9.38;;
24443;SDS011;13346;50.984;5.822;2023-06-01T08:55:48;11.82;;;9.23;;
24443;SDS011;13346;50.984;5.822;2023-06-01T08:58:17;14.43;;;9.48;;
24443;SDS011;13346;50.984;5.822;2023-06-01T09:00:46;8.90;;;7.80;;
24443;SDS011;13346;50.984;5.822;2023-06-01T09:03:14;9.55;;;8.73;;
24443;SDS011;13346;50.984;5.822;2023-06-01T09:05:41;7.70;;;7.00;;
24443;SDS011;13346;50.984;5.822;2023-06-01T09:08:09;11.10;;;9.38;;
24443;SDS011;13346;50.984;5.822;2023-06-01T09:10:36;13.57;;;8.85;;
24443;SDS011;13346;50.984;5.822;2023-06-01T09:13:05;10.05;;;8.65;;
24443;SDS011;13346;50.984;5.822;2023-06-01T09:15:32;10.48;;;9.52;;
24443;SDS011;13346;50.984;5.822;2023-06-01T09:18:06;13.43;;;10.25;;
24443;SDS011;13346;50.984;5.822;2023-06-01T09:20:35;11.77;;;8.95;;
24443;SDS011;13346;50.984;5.822;2023-06-01T09:23:04;10.27;;;9.27;;
24443;SDS011;13346;50.984;5.822;2023-06-01T09:25:32;12.68;;;8.93;;
24443;SDS011;13346;50.984;5.822;2023-06-01T09:28:00;12.15;;;9.45;;
24443;SDS011;13346;50.984;5.822;2023-06-01T09:30:38;12.15;;;8.60;;
24443;SDS011;13346;50.984;5.822;2023-06-01T09:33:06;16.13;;;10.10;;
24443;SDS011;13346;50.984;5.822;2023-06-01T09:35:39;11.27;;;8.63;;
24443;SDS011;13346;50.984;5.822;2023-06-01T09:38:08;11.20;;;9.27;;
24443;SDS011;13346;50.984;5.822;2023-06-01T09:40:37;10.85;;;9.60;;
24443;SDS011;13346;50.984;5.822;2023-06-01T09:43:20;15.77;;;10.30;;
24443;SDS011;13346;50.984;5.822;2023-06-01T09:48:32;10.57;;;9.50;;
24443;SDS011;13346;50.984;5.822;2023-06-01T09:50:59;20.70;;;11.23;;
24443;SDS011;13346;50.984;5.822;2023-06-01T09:53:27;11.15;;;9.65;;
24443;SDS011;13346;50.984;5.822;2023-06-01T09:55:57;11.75;;;10.13;;
24443;SDS011;13346;50.984;5.822;2023-06-01T09:58:25;10.95;;;9.00;;
24443;SDS011;13346;50.984;5.822;2023-06-01T10:00:53;10.48;;;8.73;;
24443;SDS011;13346;50.984;5.822;2023-06-01T10:03:22;9.65;;;8.75;;
24443;SDS011;13346;50.984;5.822;2023-06-01T10:05:49;10.65;;;9.50;;
24443;SDS011;13346;50.984;5.822;2023-06-01T10:08:17;13.13;;;9.77;;
24443;SDS011;13346;50.984;5.822;2023-06-01T10:10:45;12.80;;;9.82;;
24443;SDS011;13346;50.984;5.822;2023-06-01T10:13:13;10.27;;;8.63;;
24443;SDS011;13346;50.984;5.822;2023-06-01T10:15:41;10.15;;;9.20;;
24443;SDS011;13346;50.984;5.822;2023-06-01T10:18:08;11.38;;;10.27;;
24443;SDS011;13346;50.984;5.822;2023-06-01T10:20:37;14.40;;;10.32;;
24443;SDS011;13346;50.984;5.822;2023-06-01T10:23:05;11.05;;;10.07;;
24443;SDS011;13346;50.984;5.822;2023-06-01T10:25:35;11.75;;;9.90;;
24443;SDS011;13346;50.984;5.822;2023-06-01T10:28:08;12.38;;;9.68;;
24443;SDS011;13346;50.984;5.822;2023-06-01T10:30:37;11.77;;;10.32;;
24443;SDS011;13346;50.984;5.822;2023-06-01T10:33:06;8.60;;;7.93;;
24443;SDS011;13346;50.984;5.822;2023-06-01T10:38:29;11.27;;;10.18;;
24443;SDS011;13346;50.984;5.822;2023-06-01T10:43:53;10.43;;;9.32;;
24443;SDS011;13346;50.984;5.822;2023-06-01T10:46:34;13.40;;;9.95;;
24443;SDS011;13346;50.984;5.822;2023-06-01T10:49:08;11.15;;;9.93;;
24443;SDS011;13346;50.984;5.822;2023-06-01T10:51:37;10.50;;;9.45;;
24443;SDS011;13346;50.984;5.822;2023-06-01T10:57:20;10.75;;;9.65;;
24443;SDS011;13346;50.984;5.822;2023-06-01T11:02:42;9.07;;;8.27;;
24443;SDS011;13346;50.984;5.822;2023-06-01T11:11:21;11.85;;;10.38;;
24443;SDS011;13346;50.984;5.822;2023-06-01T11:14:11;9.68;;;8.77;;
24443;SDS011;13346;50.984;5.822;2023-06-01T11:16:39;9.43;;;8.52;;
24443;SDS011;13346;50.984;5.822;2023-06-01T11:19:06;13.05;;;10.25;;
24443;SDS011;13346;50.984;5.822;2023-06-01T11:21:39;15.20;;;10.05;;
24443;SDS011;13346;50.984;5.822;2023-06-01T11:24:10;14.10;;;8.77;;
24443;SDS011;13346;50.984;5.822;2023-06-01T11:26:39;8.88;;;7.95;;
24443;SDS011;13346;50.984;5.822;2023-06-01T11:29:09;9.25;;;8.23;;
24443;SDS011;13346;50.984;5.822;2023-06-01T11:31:39;12.10;;;8.73;;
24443;SDS011;13346;50.984;5.822;2023-06-01T11:34:08;9.45;;;8.65;;
24443;SDS011;13346;50.984;5.822;2023-06-01T11:36:37;9.57;;;8.43;;
24443;SDS011;13346;50.984;5.822;2023-06-01T11:39:15;10.82;;;9.10;;
24443;SDS011;13346;50.984;5.822;2023-06-01T11:41:49;8.95;;;7.93;;
24443;SDS011;13346;50.984;5.822;2023-06-01T11:44:16;9.65;;;8.68;;
24443;SDS011;13346;50.984;5.822;2023-06-01T11:46:50;10.63;;;9.15;;
24443;SDS011;13346;50.984;5.822;2023-06-01T11:49:18;13.43;;;11.00;;
24443;SDS011;13346;50.984;5.822;2023-06-01T11:51:46;11.65;;;10.15;;
24443;SDS011;13346;50.984;5.822;2023-06-01T11:54:16;10.05;;;8.63;;
24443;SDS011;13346;50.984;5.822;2023-06-01T11:56:49;13.57;;;8.50;;
24443;SDS011;13346;50.984;5.822;2023-06-01T11:59:18;10.80;;;9.82;;
24443;SDS011;13346;50.984;5.822;2023-06-01T12:01:46;10.30;;;9.25;;
24443;SDS011;13346;50.984;5.822;2023-06-01T12:04:14;10.55;;;8.93;;
24443;SDS011;13346;50.984;5.822;2023-06-01T12:06:43;9.35;;;8.52;;
24443;SDS011;13346;50.984;5.822;2023-06-01T12:09:11;9.13;;;8.32;;
24443;SDS011;13346;50.984;5.822;2023-06-01T12:11:42;8.55;;;7.18;;
24443;SDS011;13346;50.984;5.822;2023-06-01T12:14:10;9.77;;;7.95;;
24443;SDS011;13346;50.984;5.822;2023-06-01T12:16:51;9.55;;;8.10;;
24443;SDS011;13346;50.984;5.822;2023-06-01T12:19:24;9.90;;;7.63;;
24443;SDS011;13346;50.984;5.822;2023-06-01T12:21:52;8.02;;;7.03;;
24443;SDS011;13346;50.984;5.822;2023-06-01T12:24:27;8.63;;;6.82;;
24443;SDS011;13346;50.984;5.822;2023-06-01T12:26:57;9.55;;;7.72;;
24443;SDS011;13346;50.984;5.822;2023-06-01T12:29:35;8.63;;;7.72;;
24443;SDS011;13346;50.984;5.822;2023-06-01T12:32:03;10.80;;;7.65;;
24443;SDS011;13346;50.984;5.822;2023-06-01T12:34:31;8.07;;;7.38;;
24443;SDS011;13346;50.984;5.822;2023-06-01T12:36:58;11.15;;;7.55;;
24443;SDS011;13346;50.984;5.822;2023-06-01T12:39:31;9.57;;;8.70;;
24443;SDS011;13346;50.984;5.822;2023-06-01T12:42:03;11.98;;;8.32;;
24443;SDS011;13346;50.984;5.822;2023-06-01T12:44:31;8.52;;;7.63;;
24443;SDS011;13346;50.984;5.822;2023-06-01T12:46:59;8.85;;;7.95;;
24443;SDS011;13346;50.984;5.822;2023-06-01T12:49:27;12.00;;;8.27;;
24443;SDS011;13346;50.984;5.822;2023-06-01T12:51:55;9.95;;;8.98;;
24443;SDS011;13346;50.984;5.822;2023-06-01T12:54:22;9.00;;;6.82;;
24443;SDS011;13346;50.984;5.822;2023-06-01T12:56:49;7.50;;;6.80;;
24443;SDS011;13346;50.984;5.822;2023-06-01T12:59:19;10.80;;;7.85;;
24443;SDS011;13346;50.984;5.822;2023-06-01T13:01:47;11.35;;;7.55;;
24443;SDS011;13346;50.984;5.822;2023-06-01T13:04:15;7.43;;;6.72;;
24443;SDS011;13346;50.984;5.822;2023-06-01T13:06:42;9.93;;;7.75;;
24443;SDS011;13346;50.984;5.822;2023-06-01T13:09:09;12.00;;;8.82;;
24443;SDS011;13346;50.984;5.822;2023-06-01T13:11:39;7.80;;;6.95;;
24443;SDS011;13346;50.984;5.822;2023-06-01T13:14:07;10.15;;;6.53;;
24443;SDS011;13346;50.984;5.822;2023-06-01T13:16:36;9.18;;;7.07;;
24443;SDS011;13346;50.984;5.822;2023-06-01T13:19:05;8.93;;;7.55;;
24443;SDS011;13346;50.984;5.822;2023-06-01T13:21:32;7.53;;;6.60;;
24443;SDS011;13346;50.984;5.822;2023-06-01T13:23:59;8.10;;;7.40;;
24443;SDS011;13346;50.984;5.822;2023-06-01T13:26:28;8.57;;;5.45;;
24443;SDS011;13346;50.984;5.822;2023-06-01T13:28:56;10.10;;;6.82;;
24443;SDS011;13346;50.984;5.822;2023-06-01T13:31:23;6.75;;;6.10;;
24443;SDS011;13346;50.984;5.822;2023-06-01T13:33:52;7.20;;;6.50;;
24443;SDS011;13346;50.984;5.822;2023-06-01T13:36:19;7.70;;;7.00;;
24443;SDS011;13346;50.984;5.822;2023-06-01T13:38:46;6.80;;;5.47;;
24443;SDS011;13346;50.984;5.822;2023-06-01T13:41:13;6.68;;;6.07;;
24443;SDS011;13346;50.984;5.822;2023-06-01T13:43:41;8.30;;;6.18;;
24443;SDS011;13346;50.984;5.822;2023-06-01T13:46:08;7.47;;;6.50;;
24443;SDS011;13346;50.984;5.822;2023-06-01T13:48:36;7.38;;;6.68;;
24443;SDS011;13346;50.984;5.822;2023-06-01T13:51:05;16.23;;;7.03;;
24443;SDS011;13346;50.984;5.822;2023-06-01T13:53:32;6.88;;;6.20;;
24443;SDS011;13346;50.984;5.822;2023-06-01T13:56:00;8.95;;;6.65;;
24443;SDS011;13346;50.984;5.822;2023-06-01T13:58:28;8.40;;;7.60;;
24443;SDS011;13346;50.984;5.822;2023-06-01T14:00:55;7.70;;;6.93;;
24443;SDS011;13346;50.984;5.822;2023-06-01T14:03:23;7.40;;;6.80;;
24443;SDS011;13346;50.984;5.822;2023-06-01T14:05:50;7.43;;;6.82;;
24443;SDS011;13346;50.984;5.822;2023-06-01T14:08:18;8.93;;;6.85;;
24443;SDS011;13346;50.984;5.822;2023-06-01T14:10:46;11.07;;;7.30;;
24443;SDS011;13346;50.984;5.822;2023-06-01T14:13:13;8.20;;;7.28;;
24443;SDS011;13346;50.984;5.822;2023-06-01T14:15:40;9.30;;;7.65;;
24443;SDS011;13346;50.984;5.822;2023-06-01T14:18:07;7.10;;;6.50;;
24443;SDS011;13346;50.984;5.822;2023-06-01T14:20:35;12.07;;;8.00;;
24443;SDS011;13346;50.984;5.822;2023-06-01T14:23:03;13.43;;;7.13;;
24443;SDS011;13346;50.984;5.822;2023-06-01T14:25:34;9.18;;;8.25;;
24443;SDS011;13346;50.984;5.822;2023-06-01T14:28:01;9.80;;;8.35;;
24443;SDS011;13346;50.984;5.822;2023-06-01T14:30:28;10.90;;;7.57;;
24443;SDS011;13346;50.984;5.822;2023-06-01T14:32:55;8.45;;;7.65;;
24443;SDS011;13346;50.984;5.822;2023-06-01T14:35:23;8.85;;;6.90;;
24443;SDS011;13346;50.984;5.822;2023-06-01T14:37:51;10.38;;;7.63;;
24443;SDS011;13346;50.984;5.822;2023-06-01T14:40:18;9.85;;;7.28;;
24443;SDS011;13346;50.984;5.822;2023-06-01T14:42:47;8.32;;;7.43;;
24443;SDS011;13346;50.984;5.822;2023-06-01T14:45:14;7.55;;;6.90;;
24443;SDS011;13346;50.984;5.822;2023-06-01T14:47:44;9.05;;;7.28;;
24443;SDS011;13346;50.984;5.822;2023-06-01T14:50:11;9.52;;;7.72;;
24443;SDS011;13346;50.984;5.822;2023-06-01T14:52:38;9.15;;;7.45;;
24443;SDS011;13346;50.984;5.822;2023-06-01T14:55:06;14.57;;;7.43;;
24443;SDS011;13346;50.984;5.822;2023-06-01T14:57:34;7.40;;;6.80;;
24443;SDS011;13346;50.984;5.822;2023-06-01T15:00:03;8.90;;;7.57;;
24443;SDS011;13346;50.984;5.822;2023-06-01T15:02:31;6.50;;;6.00;;
24443;SDS011;13346;50.984;5.822;2023-06-01T15:04:59;12.32;;;6.93;;